RYR39BV LEMH-EIDW
Flight info
| Callsign | RYR39BV |
|---|---|
| Flight time | 2h 48m |
| Altitude | 36000 |
| Route | MEROS DCT LAPIT DCT CHELY DCT LUMAS DCT SOSUR DCT JUSQO DCT DIVKO DCT FJR DCT GAI DCT SECHE DCT UVELI DCT CNA DCT MANAK DCT TIRAV DCT MOKOR DCT BAGAD DCT DOLUR DCT UPCAB DCT IJALA DCT EVRIN DCT SUTEX SUTEX4L |
| Aircraft | B738/M-SDE2E3FGHIRWXY/LB1 |
Departure
| Time | 2026-04-23 17:38 |
|---|---|
| Airport | Menorca Airport (LEMH) |
Arrival
| Time | 2026-04-23 20:26 |
|---|---|
| Airport | Dublin Airport (EIDW) |
| Time | Latitude | Longitude | Altitude | Speed | Heading |
|---|---|---|---|---|---|
| 2026-04-23 17:24 | 39.86468 | 4.22400 | 285 ft | 0 kts | 99° |
| 2026-04-23 17:31 | 39.86471 | 4.22377 | 286 ft | 4 kts | 92° |
| 2026-04-23 17:31 | 39.86469 | 4.22342 | 290 ft | 4 kts | 70° |
| 2026-04-23 17:31 | 39.86456 | 4.22316 | 289 ft | 4 kts | 22° |
| 2026-04-23 17:32 | 39.86449 | 4.22313 | 291 ft | 1 kts | 9° |
| 2026-04-23 17:33 | 39.86461 | 4.22315 | 290 ft | 4 kts | 6° |
| 2026-04-23 17:33 | 39.86508 | 4.22323 | 287 ft | 10 kts | 7° |
| 2026-04-23 17:34 | 39.86597 | 4.22339 | 290 ft | 16 kts | 8° |
| 2026-04-23 17:34 | 39.86653 | 4.22350 | 289 ft | 17 kts | 13° |
| 2026-04-23 17:34 | 39.86673 | 4.22357 | 289 ft | 18 kts | 14° |
| 2026-04-23 17:35 | 39.86811 | 4.22388 | 296 ft | 22 kts | 9° |
| 2026-04-23 17:35 | 39.86963 | 4.22246 | 300 ft | 15 kts | 357° |
| 2026-04-23 17:35 | 39.87065 | 4.22270 | 306 ft | 15 kts | 9° |
| 2026-04-23 17:36 | 39.87170 | 4.22289 | 306 ft | 16 kts | 8° |
| 2026-04-23 17:36 | 39.87279 | 4.22311 | 309 ft | 15 kts | 9° |
| 2026-04-23 17:36 | 39.87378 | 4.22301 | 311 ft | 15 kts | 309° |
| 2026-04-23 17:36 | 39.87382 | 4.22159 | 310 ft | 17 kts | 248° |
| 2026-04-23 17:37 | 39.87285 | 4.22076 | 310 ft | 19 kts | 188° |
| 2026-04-23 17:37 | 39.87106 | 4.22041 | 303 ft | 48 kts | 190° |
| 2026-04-23 17:37 | 39.85512 | 4.21714 | 305 ft | 176 kts | 188° |
| 2026-04-23 17:38 | 39.84242 | 4.21353 | 830 ft | 192 kts | 191° |
| 2026-04-23 17:38 | 39.82921 | 4.20983 | 1731 ft | 189 kts | 184° |
| 2026-04-23 17:38 | 39.81628 | 4.20809 | 2717 ft | 187 kts | 182° |
| 2026-04-23 17:38 | 39.80247 | 4.20560 | 3144 ft | 214 kts | 185° |
| 2026-04-23 17:39 | 39.78695 | 4.20250 | 3407 ft | 237 kts | 185° |
| 2026-04-23 17:39 | 39.77027 | 4.20115 | 3897 ft | 243 kts | 166° |
| 2026-04-23 17:39 | 39.75528 | 4.21182 | 4180 ft | 256 kts | 127° |
| 2026-04-23 17:39 | 39.74812 | 4.23251 | 4797 ft | 260 kts | 92° |
| 2026-04-23 17:40 | 39.74996 | 4.25590 | 5572 ft | 263 kts | 72° |
| 2026-04-23 17:40 | 39.75672 | 4.27832 | 6325 ft | 270 kts | 61° |
| 2026-04-23 17:40 | 39.76598 | 4.29968 | 7092 ft | 274 kts | 53° |
| 2026-04-23 17:40 | 39.77772 | 4.31926 | 7940 ft | 275 kts | 44° |
| 2026-04-23 17:41 | 39.79187 | 4.33623 | 8731 ft | 277 kts | 34° |
| 2026-04-23 17:41 | 39.82571 | 4.36014 | 10379 ft | 279 kts | 15° |
| 2026-04-23 17:41 | 39.84507 | 4.36653 | 10690 ft | 298 kts | 6° |
| 2026-04-23 17:42 | 39.88872 | 4.36509 | 11494 ft | 325 kts | 345° |
| 2026-04-23 17:42 | 39.91033 | 4.35622 | 12250 ft | 326 kts | 335° |
| 2026-04-23 17:42 | 39.93024 | 4.34195 | 13040 ft | 328 kts | 324° |
| 2026-04-23 17:43 | 39.94762 | 4.32272 | 13826 ft | 330 kts | 314° |
| 2026-04-23 17:43 | 39.96217 | 4.29927 | 14517 ft | 335 kts | 304° |
| 2026-04-23 17:43 | 39.97471 | 4.27397 | 15131 ft | 339 kts | 312° |
| 2026-04-23 17:43 | 39.99360 | 4.25511 | 15778 ft | 342 kts | 334° |
| 2026-04-23 17:44 | 40.01642 | 4.24579 | 16468 ft | 347 kts | 349° |
| 2026-04-23 17:44 | 40.04080 | 4.24487 | 17091 ft | 356 kts | 5° |
| 2026-04-23 17:44 | 40.08997 | 4.25698 | 18374 ft | 366 kts | 9° |
| 2026-04-23 17:45 | 40.11512 | 4.26404 | 18944 ft | 369 kts | 9° |
| 2026-04-23 17:45 | 40.16555 | 4.27804 | 20211 ft | 371 kts | 8° |
| 2026-04-23 17:45 | 40.19059 | 4.28481 | 20823 ft | 373 kts | 8° |
| 2026-04-23 17:46 | 40.24164 | 4.29842 | 21994 ft | 377 kts | 7° |
| 2026-04-23 17:46 | 40.26748 | 4.30526 | 22571 ft | 379 kts | 7° |
| 2026-04-23 17:46 | 40.29336 | 4.31210 | 23116 ft | 381 kts | 7° |
| 2026-04-23 17:47 | 40.31945 | 4.31901 | 23660 ft | 384 kts | 7° |
| 2026-04-23 17:47 | 40.34572 | 4.32597 | 24112 ft | 386 kts | 7° |
| 2026-04-23 17:47 | 40.39877 | 4.34004 | 24983 ft | 391 kts | 7° |
| 2026-04-23 17:48 | 40.42518 | 4.34707 | 25402 ft | 393 kts | 7° |
| 2026-04-23 17:48 | 40.45212 | 4.35423 | 25813 ft | 396 kts | 7° |
| 2026-04-23 17:48 | 40.47922 | 4.36144 | 26219 ft | 398 kts | 7° |
| 2026-04-23 17:48 | 40.50655 | 4.36868 | 26618 ft | 400 kts | 6° |
| 2026-04-23 17:49 | 40.53403 | 4.37545 | 27000 ft | 403 kts | 6° |
| 2026-04-23 17:49 | 40.56170 | 4.38195 | 27383 ft | 405 kts | 6° |
| 2026-04-23 17:49 | 40.58947 | 4.38840 | 27764 ft | 407 kts | 5° |
| 2026-04-23 17:49 | 40.61739 | 4.39490 | 28133 ft | 409 kts | 6° |
| 2026-04-23 17:50 | 40.64553 | 4.40150 | 28494 ft | 412 kts | 6° |
| 2026-04-23 17:50 | 40.70231 | 4.41495 | 29176 ft | 417 kts | 6° |
| 2026-04-23 17:50 | 40.73062 | 4.42170 | 29522 ft | 419 kts | 6° |
| 2026-04-23 17:51 | 40.75934 | 4.42855 | 29856 ft | 421 kts | 6° |
| 2026-04-23 17:51 | 40.78832 | 4.43547 | 30174 ft | 423 kts | 6° |
| 2026-04-23 17:51 | 40.84658 | 4.44940 | 30755 ft | 426 kts | 6° |
| 2026-04-23 17:52 | 40.87570 | 4.45637 | 31168 ft | 424 kts | 6° |
| 2026-04-23 17:52 | 40.93353 | 4.47034 | 31932 ft | 422 kts | 6° |
| 2026-04-23 17:52 | 40.96241 | 4.47741 | 32240 ft | 422 kts | 6° |
| 2026-04-23 17:53 | 41.01973 | 4.49146 | 32949 ft | 420 kts | 6° |
| 2026-04-23 17:53 | 41.04843 | 4.49849 | 33305 ft | 420 kts | 6° |
| 2026-04-23 17:53 | 41.07715 | 4.50552 | 33618 ft | 419 kts | 6° |
| 2026-04-23 17:54 | 41.10584 | 4.51253 | 33945 ft | 418 kts | 6° |
| 2026-04-23 17:54 | 41.13455 | 4.51954 | 34270 ft | 418 kts | 6° |
| 2026-04-23 17:54 | 41.19175 | 4.53350 | 34794 ft | 418 kts | 6° |
| 2026-04-23 17:55 | 41.24889 | 4.54748 | 35317 ft | 417 kts | 6° |
| 2026-04-23 17:55 | 41.27742 | 4.55447 | 35581 ft | 416 kts | 6° |
| 2026-04-23 17:55 | 41.30586 | 4.56145 | 35835 ft | 416 kts | 6° |
| 2026-04-23 17:56 | 41.33402 | 4.56836 | 36081 ft | 416 kts | 6° |
| 2026-04-23 17:56 | 41.42006 | 4.58951 | 36170 ft | 418 kts | 6° |
| 2026-04-23 17:57 | 41.47687 | 4.60356 | 36170 ft | 411 kts | 6° |
| 2026-04-23 17:58 | 41.56106 | 4.62434 | 36175 ft | 410 kts | 6° |
| 2026-04-23 17:58 | 41.61726 | 4.63825 | 36180 ft | 410 kts | 6° |
| 2026-04-23 17:59 | 41.67340 | 4.65218 | 36181 ft | 411 kts | 6° |
| 2026-04-23 17:59 | 41.72967 | 4.66620 | 36185 ft | 411 kts | 7° |
| 2026-04-23 18:00 | 41.78531 | 4.68599 | 36187 ft | 415 kts | 12° |
| 2026-04-23 18:00 | 41.84034 | 4.70852 | 36182 ft | 416 kts | 12° |
| 2026-04-23 18:01 | 41.89574 | 4.73102 | 36196 ft | 416 kts | 12° |
| 2026-04-23 18:01 | 41.95144 | 4.75327 | 36184 ft | 416 kts | 12° |
| 2026-04-23 18:02 | 41.99769 | 4.77163 | 36182 ft | 416 kts | 12° |
| 2026-04-23 18:02 | 42.06239 | 4.79734 | 36185 ft | 416 kts | 12° |
| 2026-04-23 18:03 | 42.11801 | 4.81949 | 36197 ft | 416 kts | 12° |
| 2026-04-23 18:03 | 42.17323 | 4.84152 | 36184 ft | 416 kts | 12° |
| 2026-04-23 18:04 | 42.22871 | 4.86370 | 36187 ft | 415 kts | 12° |
| 2026-04-23 18:04 | 42.28408 | 4.88588 | 36183 ft | 415 kts | 12° |
| 2026-04-23 18:05 | 42.33937 | 4.90806 | 36189 ft | 414 kts | 12° |
| 2026-04-23 18:05 | 42.39462 | 4.93027 | 36183 ft | 413 kts | 12° |
| 2026-04-23 18:06 | 42.44976 | 4.95248 | 36186 ft | 413 kts | 12° |
| 2026-04-23 18:06 | 42.50479 | 4.97467 | 36191 ft | 412 kts | 12° |
| 2026-04-23 18:07 | 42.56045 | 4.98616 | 36203 ft | 401 kts | 355° |
| 2026-04-23 18:07 | 42.61484 | 4.97397 | 36196 ft | 395 kts | 340° |
| 2026-04-23 18:08 | 42.65808 | 4.95416 | 36192 ft | 394 kts | 340° |
| 2026-04-23 18:08 | 42.71848 | 4.92696 | 36185 ft | 393 kts | 340° |
| 2026-04-23 18:09 | 42.77062 | 4.90390 | 36202 ft | 394 kts | 340° |
| 2026-04-23 18:09 | 42.81410 | 4.88467 | 36215 ft | 397 kts | 340° |
| 2026-04-23 18:09 | 42.84050 | 4.87297 | 36316 ft | 400 kts | 340° |
| 2026-04-23 18:10 | 42.86701 | 4.86120 | 36553 ft | 400 kts | 340° |
| 2026-04-23 18:10 | 42.89343 | 4.84947 | 36835 ft | 398 kts | 340° |
| 2026-04-23 18:10 | 42.91978 | 4.83775 | 37083 ft | 398 kts | 340° |
| 2026-04-23 18:10 | 42.94617 | 4.82601 | 37261 ft | 399 kts | 340° |
| 2026-04-23 18:11 | 42.97263 | 4.81422 | 37435 ft | 400 kts | 340° |
| 2026-04-23 18:11 | 42.99916 | 4.80240 | 37610 ft | 401 kts | 340° |
| 2026-04-23 18:11 | 43.02510 | 4.78977 | 37833 ft | 399 kts | 334° |
| 2026-04-23 18:11 | 43.04944 | 4.77157 | 38032 ft | 399 kts | 327° |
| 2026-04-23 18:12 | 43.07204 | 4.74955 | 38185 ft | 400 kts | 321° |
| 2026-04-23 18:12 | 43.11120 | 4.69483 | 38194 ft | 404 kts | 313° |
| 2026-04-23 18:13 | 43.14841 | 4.63741 | 38201 ft | 401 kts | 313° |
| 2026-04-23 18:13 | 43.18537 | 4.58052 | 38193 ft | 398 kts | 313° |
| 2026-04-23 18:14 | 43.22195 | 4.52449 | 38190 ft | 395 kts | 313° |
| 2026-04-23 18:14 | 43.25866 | 4.46831 | 38197 ft | 395 kts | 313° |
| 2026-04-23 18:15 | 43.29530 | 4.41215 | 38206 ft | 395 kts | 313° |
| 2026-04-23 18:15 | 43.33202 | 4.35576 | 38205 ft | 397 kts | 313° |
| 2026-04-23 18:16 | 43.36894 | 4.29894 | 38209 ft | 399 kts | 313° |
| 2026-04-23 18:16 | 43.40605 | 4.24171 | 38212 ft | 402 kts | 313° |
| 2026-04-23 18:17 | 43.46198 | 4.15525 | 38207 ft | 405 kts | 313° |
| 2026-04-23 18:17 | 43.49924 | 4.09749 | 38215 ft | 406 kts | 313° |
| 2026-04-23 18:18 | 43.53685 | 4.03909 | 38213 ft | 408 kts | 313° |
| 2026-04-23 18:18 | 43.57101 | 3.97674 | 38232 ft | 410 kts | 301° |
| 2026-04-23 18:19 | 43.59211 | 3.90321 | 38218 ft | 415 kts | 288° |
| 2026-04-23 18:19 | 43.60612 | 3.82589 | 38223 ft | 415 kts | 287° |
| 2026-04-23 18:20 | 43.61990 | 3.74852 | 38218 ft | 414 kts | 287° |
| 2026-04-23 18:20 | 43.63380 | 3.67145 | 38222 ft | 413 kts | 287° |
| 2026-04-23 18:21 | 43.64776 | 3.59448 | 38222 ft | 412 kts | 287° |
| 2026-04-23 18:21 | 43.66158 | 3.51823 | 38223 ft | 411 kts | 287° |
| 2026-04-23 18:22 | 43.67541 | 3.44160 | 38219 ft | 410 kts | 287° |
| 2026-04-23 18:22 | 43.68914 | 3.36523 | 38215 ft | 409 kts | 287° |
| 2026-04-23 18:23 | 43.70961 | 3.25076 | 38216 ft | 408 kts | 287° |
| 2026-04-23 18:24 | 43.72983 | 3.13696 | 38215 ft | 408 kts | 287° |
| 2026-04-23 18:25 | 43.75007 | 3.02235 | 38203 ft | 409 kts | 286° |
| 2026-04-23 18:25 | 43.76352 | 2.94577 | 38212 ft | 410 kts | 286° |
| 2026-04-23 18:26 | 43.77694 | 2.86899 | 38208 ft | 411 kts | 286° |
| 2026-04-23 18:26 | 43.79026 | 2.79252 | 38204 ft | 412 kts | 286° |
| 2026-04-23 18:27 | 43.80365 | 2.71528 | 38186 ft | 413 kts | 286° |
| 2026-04-23 18:27 | 43.81703 | 2.63780 | 38178 ft | 414 kts | 285° |
| 2026-04-23 18:28 | 43.83036 | 2.56024 | 38166 ft | 414 kts | 285° |
| 2026-04-23 18:28 | 43.84366 | 2.48249 | 38166 ft | 414 kts | 285° |
| 2026-04-23 18:29 | 43.85690 | 2.40480 | 38155 ft | 414 kts | 285° |
| 2026-04-23 18:29 | 43.87000 | 2.32758 | 38155 ft | 414 kts | 285° |
| 2026-04-23 18:30 | 43.88314 | 2.24976 | 38133 ft | 414 kts | 285° |
| 2026-04-23 18:30 | 43.89620 | 2.17209 | 38144 ft | 414 kts | 285° |
| 2026-04-23 18:31 | 43.90920 | 2.09438 | 38143 ft | 413 kts | 285° |
| 2026-04-23 18:31 | 43.92215 | 2.01666 | 38137 ft | 413 kts | 285° |
| 2026-04-23 18:32 | 43.93506 | 1.93890 | 38139 ft | 412 kts | 285° |
| 2026-04-23 18:32 | 43.94779 | 1.86184 | 38128 ft | 412 kts | 284° |
| 2026-04-23 18:33 | 43.96692 | 1.78738 | 38141 ft | 409 kts | 298° |
| 2026-04-23 18:33 | 43.99366 | 1.71777 | 38144 ft | 409 kts | 299° |
| 2026-04-23 18:34 | 44.02046 | 1.64783 | 38133 ft | 410 kts | 298° |
| 2026-04-23 18:34 | 44.04706 | 1.57756 | 38130 ft | 411 kts | 298° |
| 2026-04-23 18:35 | 44.07358 | 1.50703 | 38103 ft | 412 kts | 298° |
| 2026-04-23 18:35 | 44.10005 | 1.43634 | 38132 ft | 412 kts | 298° |
| 2026-04-23 18:36 | 44.12637 | 1.36587 | 38129 ft | 413 kts | 298° |
| 2026-04-23 18:36 | 44.15289 | 1.29469 | 38124 ft | 414 kts | 298° |
| 2026-04-23 18:37 | 44.17944 | 1.22327 | 38110 ft | 415 kts | 298° |
| 2026-04-23 18:37 | 44.20594 | 1.15179 | 38108 ft | 415 kts | 298° |
| 2026-04-23 18:38 | 44.23222 | 1.08072 | 38122 ft | 415 kts | 297° |
| 2026-04-23 18:38 | 44.25868 | 1.00898 | 38098 ft | 415 kts | 297° |
| 2026-04-23 18:39 | 44.28509 | 0.93718 | 38110 ft | 416 kts | 297° |
| 2026-04-23 18:39 | 44.31146 | 0.86533 | 38100 ft | 416 kts | 297° |
| 2026-04-23 18:40 | 44.33784 | 0.79325 | 38094 ft | 416 kts | 297° |
| 2026-04-23 18:40 | 44.36395 | 0.72169 | 38101 ft | 415 kts | 297° |
| 2026-04-23 18:41 | 44.39016 | 0.64972 | 38091 ft | 415 kts | 297° |
| 2026-04-23 18:41 | 44.41635 | 0.57759 | 38087 ft | 415 kts | 297° |
| 2026-04-23 18:41 | 44.43151 | 0.54312 | 38066 ft | 415 kts | 309° |
| 2026-04-23 18:42 | 44.45150 | 0.51413 | 38100 ft | 415 kts | 319° |
| 2026-04-23 18:42 | 44.47476 | 0.49028 | 38078 ft | 416 kts | 330° |
| 2026-04-23 18:42 | 44.50080 | 0.47216 | 38101 ft | 417 kts | 333° |
| 2026-04-23 18:43 | 44.55323 | 0.43824 | 38091 ft | 417 kts | 334° |
| 2026-04-23 18:43 | 44.60601 | 0.40388 | 38083 ft | 418 kts | 333° |
| 2026-04-23 18:44 | 44.65877 | 0.36895 | 38071 ft | 419 kts | 333° |
| 2026-04-23 18:44 | 44.71145 | 0.33378 | 38080 ft | 419 kts | 333° |
| 2026-04-23 18:45 | 44.76376 | 0.29876 | 38079 ft | 419 kts | 333° |
| 2026-04-23 18:45 | 44.81653 | 0.26336 | 38074 ft | 420 kts | 333° |
| 2026-04-23 18:46 | 44.86936 | 0.22786 | 38078 ft | 420 kts | 333° |
| 2026-04-23 18:46 | 44.92213 | 0.19233 | 38077 ft | 420 kts | 333° |
| 2026-04-23 18:47 | 44.97499 | 0.15666 | 38080 ft | 420 kts | 333° |
| 2026-04-23 18:47 | 45.02783 | 0.12094 | 38069 ft | 421 kts | 333° |
| 2026-04-23 18:48 | 45.08037 | 0.08537 | 38066 ft | 421 kts | 333° |
| 2026-04-23 18:48 | 45.13319 | 0.04954 | 38080 ft | 420 kts | 333° |
| 2026-04-23 18:49 | 45.18600 | 0.01365 | 38076 ft | 420 kts | 333° |
| 2026-04-23 18:49 | 45.23878 | -0.02231 | 38061 ft | 420 kts | 333° |
| 2026-04-23 18:50 | 45.28267 | -0.05226 | 38083 ft | 420 kts | 333° |
| 2026-04-23 18:50 | 45.34418 | -0.09434 | 38085 ft | 420 kts | 333° |
| 2026-04-23 18:51 | 45.39660 | -0.13027 | 38075 ft | 420 kts | 333° |
| 2026-04-23 18:51 | 45.44929 | -0.16646 | 38078 ft | 420 kts | 333° |
| 2026-04-23 18:52 | 45.50203 | -0.20277 | 38075 ft | 421 kts | 333° |
| 2026-04-23 18:52 | 45.55472 | -0.23912 | 38079 ft | 421 kts | 333° |
| 2026-04-23 18:53 | 45.60749 | -0.27560 | 38086 ft | 421 kts | 333° |
| 2026-04-23 18:53 | 45.65998 | -0.31299 | 38071 ft | 421 kts | 327° |
| 2026-04-23 18:54 | 45.70635 | -0.36262 | 38079 ft | 419 kts | 320° |
| 2026-04-23 18:54 | 45.75193 | -0.41496 | 38085 ft | 419 kts | 320° |
| 2026-04-23 18:55 | 45.78987 | -0.45829 | 38083 ft | 420 kts | 321° |
| 2026-04-23 18:55 | 45.83576 | -0.51041 | 38083 ft | 420 kts | 321° |
| 2026-04-23 18:56 | 45.88164 | -0.56249 | 38085 ft | 420 kts | 321° |
| 2026-04-23 18:56 | 45.92725 | -0.61435 | 38086 ft | 421 kts | 321° |
| 2026-04-23 18:57 | 45.97310 | -0.66661 | 38089 ft | 421 kts | 321° |
| 2026-04-23 18:57 | 46.01900 | -0.71905 | 38089 ft | 421 kts | 321° |
| 2026-04-23 18:58 | 46.06483 | -0.77152 | 38084 ft | 421 kts | 321° |
| 2026-04-23 18:58 | 46.11039 | -0.82380 | 38086 ft | 421 kts | 320° |
| 2026-04-23 18:59 | 46.15615 | -0.87643 | 38091 ft | 421 kts | 320° |
| 2026-04-23 18:59 | 46.20193 | -0.92919 | 38088 ft | 421 kts | 320° |
| 2026-04-23 19:00 | 46.24773 | -0.98203 | 38082 ft | 421 kts | 320° |
| 2026-04-23 19:00 | 46.29320 | -1.03456 | 38085 ft | 421 kts | 320° |
| 2026-04-23 19:01 | 46.33896 | -1.08754 | 38088 ft | 421 kts | 320° |
| 2026-04-23 19:01 | 46.38466 | -1.14058 | 38093 ft | 421 kts | 320° |
| 2026-04-23 19:02 | 46.43036 | -1.19375 | 38115 ft | 421 kts | 320° |
| 2026-04-23 19:02 | 46.47610 | -1.24708 | 38117 ft | 421 kts | 320° |
| 2026-04-23 19:03 | 46.52152 | -1.30017 | 38125 ft | 422 kts | 320° |
| 2026-04-23 19:03 | 46.56724 | -1.35370 | 38137 ft | 422 kts | 320° |
| 2026-04-23 19:04 | 46.61208 | -1.40869 | 38124 ft | 422 kts | 314° |
| 2026-04-23 19:04 | 46.65284 | -1.47020 | 38128 ft | 422 kts | 312° |
| 2026-04-23 19:05 | 46.69305 | -1.53259 | 38134 ft | 422 kts | 313° |
| 2026-04-23 19:05 | 46.73352 | -1.59469 | 38129 ft | 423 kts | 313° |
| 2026-04-23 19:06 | 46.77416 | -1.65666 | 38127 ft | 423 kts | 313° |
| 2026-04-23 19:06 | 46.81461 | -1.71838 | 38125 ft | 423 kts | 313° |
| 2026-04-23 19:07 | 46.85531 | -1.78061 | 38121 ft | 423 kts | 313° |
| 2026-04-23 19:07 | 46.89592 | -1.84288 | 38118 ft | 423 kts | 313° |
| 2026-04-23 19:08 | 46.93631 | -1.90497 | 38115 ft | 423 kts | 313° |
| 2026-04-23 19:08 | 46.97684 | -1.96740 | 38120 ft | 423 kts | 313° |
| 2026-04-23 19:09 | 47.01742 | -2.02986 | 38118 ft | 423 kts | 313° |
| 2026-04-23 19:09 | 47.05872 | -2.09129 | 38125 ft | 422 kts | 314° |
| 2026-04-23 19:10 | 47.10013 | -2.15242 | 38123 ft | 422 kts | 314° |
| 2026-04-23 19:10 | 47.14119 | -2.21340 | 38129 ft | 422 kts | 313° |
| 2026-04-23 19:11 | 47.18249 | -2.27503 | 38129 ft | 422 kts | 313° |
| 2026-04-23 19:11 | 47.22371 | -2.33675 | 38132 ft | 422 kts | 313° |
| 2026-04-23 19:12 | 47.25792 | -2.38808 | 38129 ft | 422 kts | 313° |
| 2026-04-23 19:12 | 47.30586 | -2.46018 | 38132 ft | 423 kts | 313° |
| 2026-04-23 19:13 | 47.34702 | -2.52225 | 38129 ft | 423 kts | 313° |
| 2026-04-23 19:13 | 47.38822 | -2.58453 | 38132 ft | 423 kts | 313° |
| 2026-04-23 19:14 | 47.42935 | -2.64685 | 38133 ft | 424 kts | 313° |
| 2026-04-23 19:14 | 47.47027 | -2.70900 | 38131 ft | 424 kts | 313° |
| 2026-04-23 19:15 | 47.51141 | -2.77163 | 38131 ft | 425 kts | 313° |
| 2026-04-23 19:15 | 47.55265 | -2.83454 | 38133 ft | 425 kts | 313° |
| 2026-04-23 19:16 | 47.59466 | -2.89553 | 38126 ft | 427 kts | 320° |
| 2026-04-23 19:16 | 47.64246 | -2.94810 | 38125 ft | 427 kts | 322° |
| 2026-04-23 19:17 | 47.71483 | -3.02568 | 38136 ft | 428 kts | 322° |
| 2026-04-23 19:17 | 47.76255 | -3.07772 | 38144 ft | 428 kts | 322° |
| 2026-04-23 19:18 | 47.81055 | -3.13054 | 38137 ft | 429 kts | 322° |
| 2026-04-23 19:18 | 47.85843 | -3.18344 | 38142 ft | 429 kts | 322° |
| 2026-04-23 19:19 | 47.93033 | -3.26312 | 38144 ft | 429 kts | 322° |
| 2026-04-23 19:20 | 48.00217 | -3.34298 | 38149 ft | 429 kts | 322° |
| 2026-04-23 19:20 | 48.05007 | -3.39638 | 38152 ft | 429 kts | 321° |
| 2026-04-23 19:21 | 48.12156 | -3.47633 | 38153 ft | 429 kts | 321° |
| 2026-04-23 19:22 | 48.16938 | -3.52998 | 38151 ft | 429 kts | 321° |
| 2026-04-23 19:22 | 48.24115 | -3.61072 | 38151 ft | 430 kts | 321° |
| 2026-04-23 19:23 | 48.28901 | -3.66473 | 38156 ft | 430 kts | 321° |
| 2026-04-23 19:24 | 48.36046 | -3.74559 | 38163 ft | 430 kts | 321° |
| 2026-04-23 19:24 | 48.43221 | -3.82709 | 38158 ft | 430 kts | 321° |
| 2026-04-23 19:25 | 48.52784 | -3.93617 | 38159 ft | 431 kts | 321° |
| 2026-04-23 19:26 | 48.59956 | -4.01833 | 38164 ft | 431 kts | 320° |
| 2026-04-23 19:27 | 48.71863 | -4.15531 | 38169 ft | 431 kts | 320° |
| 2026-04-23 19:28 | 48.81384 | -4.26562 | 38172 ft | 430 kts | 320° |
| 2026-04-23 19:29 | 48.88481 | -4.34811 | 38172 ft | 430 kts | 320° |
| 2026-04-23 19:30 | 48.95604 | -4.43121 | 38164 ft | 430 kts | 319° |
| 2026-04-23 19:31 | 49.02735 | -4.51473 | 38188 ft | 431 kts | 321° |
| 2026-04-23 19:31 | 49.07493 | -4.57060 | 38182 ft | 432 kts | 321° |
| 2026-04-23 19:32 | 49.12262 | -4.62679 | 38191 ft | 433 kts | 320° |
| 2026-04-23 19:32 | 49.17003 | -4.68280 | 38201 ft | 434 kts | 319° |
| 2026-04-23 19:33 | 49.21789 | -4.73939 | 38192 ft | 435 kts | 319° |
| 2026-04-23 19:33 | 49.28973 | -4.82470 | 38199 ft | 436 kts | 320° |
| 2026-04-23 19:34 | 49.33756 | -4.88170 | 38198 ft | 436 kts | 319° |
| 2026-04-23 19:35 | 49.40945 | -4.96758 | 38193 ft | 436 kts | 320° |
| 2026-04-23 19:35 | 49.45703 | -5.02458 | 38198 ft | 436 kts | 319° |
| 2026-04-23 19:36 | 49.50643 | -5.07876 | 38203 ft | 438 kts | 327° |
| 2026-04-23 19:36 | 49.55972 | -5.12446 | 38202 ft | 438 kts | 329° |
| 2026-04-23 19:37 | 49.61332 | -5.16950 | 38205 ft | 438 kts | 328° |
| 2026-04-23 19:37 | 49.66654 | -5.21503 | 38206 ft | 437 kts | 329° |
| 2026-04-23 19:38 | 49.71931 | -5.26082 | 38210 ft | 437 kts | 328° |
| 2026-04-23 19:38 | 49.77229 | -5.30709 | 38216 ft | 437 kts | 328° |
| 2026-04-23 19:39 | 49.82525 | -5.35342 | 38211 ft | 437 kts | 329° |
| 2026-04-23 19:39 | 49.87815 | -5.39977 | 38219 ft | 437 kts | 328° |
| 2026-04-23 19:40 | 49.93111 | -5.44625 | 38223 ft | 437 kts | 328° |
| 2026-04-23 19:40 | 49.98414 | -5.49297 | 38212 ft | 438 kts | 329° |
| 2026-04-23 19:41 | 50.03715 | -5.53992 | 38228 ft | 439 kts | 328° |
| 2026-04-23 19:41 | 50.08134 | -5.57910 | 38223 ft | 440 kts | 329° |
| 2026-04-23 19:42 | 50.14057 | -5.63162 | 38227 ft | 442 kts | 329° |
| 2026-04-23 19:42 | 50.19399 | -5.67919 | 38232 ft | 443 kts | 327° |
| 2026-04-23 19:43 | 50.23852 | -5.71898 | 38224 ft | 444 kts | 328° |
| 2026-04-23 19:43 | 50.29213 | -5.76700 | 38233 ft | 444 kts | 328° |
| 2026-04-23 19:44 | 50.35463 | -5.82304 | 38229 ft | 445 kts | 328° |
| 2026-04-23 19:44 | 50.39962 | -5.86350 | 38239 ft | 445 kts | 328° |
| 2026-04-23 19:45 | 50.45295 | -5.91164 | 38240 ft | 444 kts | 328° |
| 2026-04-23 19:45 | 50.50654 | -5.96007 | 38232 ft | 444 kts | 329° |
| 2026-04-23 19:46 | 50.56008 | -6.00858 | 38228 ft | 443 kts | 327° |
| 2026-04-23 19:46 | 50.61347 | -6.05709 | 38241 ft | 442 kts | 328° |
| 2026-04-23 19:47 | 50.66675 | -6.10570 | 38240 ft | 443 kts | 328° |
| 2026-04-23 19:47 | 50.72007 | -6.15436 | 38249 ft | 443 kts | 328° |
| 2026-04-23 19:48 | 50.77340 | -6.20320 | 38242 ft | 443 kts | 328° |
| 2026-04-23 19:48 | 50.82686 | -6.25232 | 38238 ft | 444 kts | 327° |
| 2026-04-23 19:49 | 50.88021 | -6.30093 | 38240 ft | 446 kts | 332° |
| 2026-04-23 19:49 | 50.93924 | -6.33176 | 38260 ft | 449 kts | 347° |
| 2026-04-23 19:50 | 51.00104 | -6.34907 | 38253 ft | 451 kts | 349° |
| 2026-04-23 19:50 | 51.06296 | -6.36641 | 38255 ft | 451 kts | 349° |
| 2026-04-23 19:51 | 51.12355 | -6.38420 | 38232 ft | 429 kts | 349° |
| 2026-04-23 19:51 | 51.15245 | -6.39279 | 38235 ft | 415 kts | 347° |
| 2026-04-23 19:51 | 51.18053 | -6.40119 | 38226 ft | 409 kts | 348° |
| 2026-04-23 19:52 | 51.23700 | -6.41819 | 38273 ft | 417 kts | 348° |
| 2026-04-23 19:52 | 51.29440 | -6.43530 | 38286 ft | 426 kts | 349° |
| 2026-04-23 19:53 | 51.35343 | -6.45089 | 38266 ft | 432 kts | 349° |
| 2026-04-23 19:53 | 51.38302 | -6.45837 | 38104 ft | 428 kts | 350° |
| 2026-04-23 19:53 | 51.41227 | -6.46582 | 37580 ft | 427 kts | 350° |
| 2026-04-23 19:53 | 51.44174 | -6.47340 | 36850 ft | 432 kts | 350° |
| 2026-04-23 19:54 | 51.47156 | -6.48117 | 36210 ft | 435 kts | 350° |
| 2026-04-23 19:54 | 51.50129 | -6.48895 | 35825 ft | 431 kts | 349° |
| 2026-04-23 19:54 | 51.53085 | -6.49670 | 35453 ft | 428 kts | 349° |
| 2026-04-23 19:54 | 51.56007 | -6.50436 | 35178 ft | 422 kts | 350° |
| 2026-04-23 19:55 | 51.58898 | -6.51196 | 34806 ft | 419 kts | 350° |
| 2026-04-23 19:55 | 51.61773 | -6.51953 | 34391 ft | 418 kts | 350° |
| 2026-04-23 19:55 | 51.64631 | -6.52707 | 34088 ft | 413 kts | 350° |
| 2026-04-23 19:55 | 51.67446 | -6.53450 | 33734 ft | 408 kts | 350° |
| 2026-04-23 19:56 | 51.70214 | -6.54182 | 33300 ft | 407 kts | 350° |
| 2026-04-23 19:56 | 51.73004 | -6.54921 | 32896 ft | 405 kts | 350° |
| 2026-04-23 19:56 | 51.75775 | -6.55655 | 32484 ft | 403 kts | 350° |
| 2026-04-23 19:56 | 51.78529 | -6.56387 | 32105 ft | 400 kts | 349° |
| 2026-04-23 19:57 | 51.81256 | -6.57224 | 31760 ft | 397 kts | 348° |
| 2026-04-23 19:57 | 51.83947 | -6.58150 | 31387 ft | 395 kts | 347° |
| 2026-04-23 19:57 | 51.86627 | -6.59107 | 31014 ft | 393 kts | 347° |
| 2026-04-23 19:57 | 51.89298 | -6.60064 | 30665 ft | 391 kts | 347° |
| 2026-04-23 19:58 | 51.91944 | -6.61004 | 30294 ft | 389 kts | 347° |
| 2026-04-23 19:58 | 51.94587 | -6.61936 | 29859 ft | 387 kts | 347° |
| 2026-04-23 19:58 | 51.97221 | -6.62859 | 29376 ft | 386 kts | 347° |
| 2026-04-23 19:58 | 51.99837 | -6.63772 | 28973 ft | 383 kts | 347° |
| 2026-04-23 19:59 | 52.02446 | -6.64681 | 28585 ft | 381 kts | 347° |
| 2026-04-23 19:59 | 52.04993 | -6.65567 | 28186 ft | 379 kts | 348° |
| 2026-04-23 19:59 | 52.07570 | -6.66465 | 27757 ft | 378 kts | 348° |
| 2026-04-23 19:59 | 52.10145 | -6.67363 | 27314 ft | 378 kts | 348° |
| 2026-04-23 20:00 | 52.12697 | -6.68254 | 27007 ft | 373 kts | 348° |
| 2026-04-23 20:00 | 52.15221 | -6.69136 | 26661 ft | 371 kts | 348° |
| 2026-04-23 20:00 | 52.17747 | -6.70019 | 26214 ft | 371 kts | 348° |
| 2026-04-23 20:00 | 52.20263 | -6.70901 | 25880 ft | 369 kts | 348° |
| 2026-04-23 20:01 | 52.22753 | -6.71775 | 25592 ft | 365 kts | 348° |
| 2026-04-23 20:01 | 52.25242 | -6.72649 | 25104 ft | 367 kts | 348° |
| 2026-04-23 20:01 | 52.27742 | -6.73527 | 24736 ft | 366 kts | 348° |
| 2026-04-23 20:01 | 52.30224 | -6.74400 | 24471 ft | 362 kts | 349° |
| 2026-04-23 20:02 | 52.32682 | -6.75267 | 24144 ft | 360 kts | 349° |
| 2026-04-23 20:02 | 52.35143 | -6.76135 | 23727 ft | 361 kts | 349° |
| 2026-04-23 20:02 | 52.37586 | -6.76998 | 23415 ft | 357 kts | 348° |
| 2026-04-23 20:02 | 52.40013 | -6.77856 | 23054 ft | 355 kts | 349° |
| 2026-04-23 20:03 | 52.42395 | -6.78699 | 22630 ft | 355 kts | 349° |
| 2026-04-23 20:03 | 52.44798 | -6.79550 | 22306 ft | 352 kts | 348° |
| 2026-04-23 20:03 | 52.47189 | -6.80398 | 21969 ft | 350 kts | 349° |
| 2026-04-23 20:03 | 52.49571 | -6.81244 | 21596 ft | 350 kts | 349° |
| 2026-04-23 20:04 | 52.51946 | -6.82088 | 21252 ft | 348 kts | 348° |
| 2026-04-23 20:04 | 52.54308 | -6.82929 | 20930 ft | 346 kts | 349° |
| 2026-04-23 20:04 | 52.56656 | -6.83766 | 20589 ft | 344 kts | 349° |
| 2026-04-23 20:04 | 52.59005 | -6.84604 | 20223 ft | 344 kts | 348° |
| 2026-04-23 20:05 | 52.61352 | -6.85442 | 19880 ft | 343 kts | 348° |
| 2026-04-23 20:05 | 52.63655 | -6.86265 | 19575 ft | 342 kts | 348° |
| 2026-04-23 20:05 | 52.65974 | -6.87095 | 19261 ft | 340 kts | 348° |
| 2026-04-23 20:05 | 52.68284 | -6.87922 | 18950 ft | 338 kts | 348° |
| 2026-04-23 20:06 | 52.70585 | -6.88748 | 18637 ft | 337 kts | 348° |
| 2026-04-23 20:06 | 52.72823 | -6.89551 | 18297 ft | 336 kts | 348° |
| 2026-04-23 20:06 | 52.75106 | -6.90372 | 17931 ft | 335 kts | 348° |
| 2026-04-23 20:06 | 52.77380 | -6.91190 | 17575 ft | 334 kts | 348° |
| 2026-04-23 20:07 | 52.79624 | -6.91990 | 17223 ft | 333 kts | 350° |
| 2026-04-23 20:07 | 52.81912 | -6.92015 | 16843 ft | 329 kts | 15° |
| 2026-04-23 20:07 | 52.83993 | -6.90577 | 16541 ft | 322 kts | 37° |
| 2026-04-23 20:07 | 52.85712 | -6.88245 | 16198 ft | 319 kts | 45° |
| 2026-04-23 20:08 | 52.87350 | -6.85758 | 15831 ft | 319 kts | 46° |
| 2026-04-23 20:08 | 52.88980 | -6.83246 | 15472 ft | 320 kts | 46° |
| 2026-04-23 20:08 | 52.90597 | -6.80766 | 15353 ft | 311 kts | 45° |
| 2026-04-23 20:08 | 52.92164 | -6.78380 | 15300 ft | 301 kts | 45° |
| 2026-04-23 20:09 | 52.93697 | -6.76055 | 15084 ft | 298 kts | 45° |
| 2026-04-23 20:09 | 52.95250 | -6.73704 | 14514 ft | 308 kts | 45° |
| 2026-04-23 20:09 | 52.96861 | -6.71264 | 13961 ft | 317 kts | 45° |
| 2026-04-23 20:09 | 52.98499 | -6.68789 | 13633 ft | 317 kts | 45° |
| 2026-04-23 20:10 | 52.99576 | -6.67164 | 13465 ft | 315 kts | 45° |
| 2026-04-23 20:10 | 53.01600 | -6.63726 | 13110 ft | 307 kts | 54° |
| 2026-04-23 20:10 | 53.02925 | -6.60986 | 12898 ft | 302 kts | 55° |
| 2026-04-23 20:10 | 53.04220 | -6.58265 | 12642 ft | 299 kts | 55° |
| 2026-04-23 20:11 | 53.05510 | -6.55603 | 12339 ft | 299 kts | 54° |
| 2026-04-23 20:11 | 53.06824 | -6.52928 | 12037 ft | 298 kts | 54° |
| 2026-04-23 20:11 | 53.08127 | -6.50290 | 11864 ft | 292 kts | 54° |
| 2026-04-23 20:11 | 53.09464 | -6.47788 | 11723 ft | 288 kts | 42° |
| 2026-04-23 20:12 | 53.11236 | -6.46321 | 11564 ft | 285 kts | 12° |
| 2026-04-23 20:12 | 53.13187 | -6.46274 | 11365 ft | 280 kts | 347° |
| 2026-04-23 20:12 | 53.15033 | -6.47261 | 11097 ft | 278 kts | 337° |
| 2026-04-23 20:12 | 53.16839 | -6.48419 | 10792 ft | 278 kts | 337° |
| 2026-04-23 20:13 | 53.18619 | -6.49662 | 10530 ft | 276 kts | 326° |
| 2026-04-23 20:13 | 53.19964 | -6.51847 | 10243 ft | 267 kts | 295° |
| 2026-04-23 20:13 | 53.20517 | -6.54664 | 9995 ft | 256 kts | 271° |
| 2026-04-23 20:13 | 53.20434 | -6.57571 | 9685 ft | 248 kts | 250° |
| 2026-04-23 20:14 | 53.19855 | -6.60270 | 9410 ft | 246 kts | 245° |
| 2026-04-23 20:14 | 53.19612 | -6.63107 | 9007 ft | 256 kts | 277° |
| 2026-04-23 20:14 | 53.20202 | -6.65938 | 8629 ft | 259 kts | 287° |
| 2026-04-23 20:14 | 53.20861 | -6.68748 | 8221 ft | 260 kts | 287° |
| 2026-04-23 20:15 | 53.21492 | -6.71540 | 7845 ft | 260 kts | 287° |
| 2026-04-23 20:15 | 53.22114 | -6.74369 | 7498 ft | 259 kts | 286° |
| 2026-04-23 20:15 | 53.22721 | -6.77199 | 7375 ft | 261 kts | 286° |
| 2026-04-23 20:15 | 53.23399 | -6.80015 | 7317 ft | 262 kts | 300° |
| 2026-04-23 20:16 | 53.24750 | -6.81963 | 7211 ft | 254 kts | 340° |
| 2026-04-23 20:16 | 53.26420 | -6.82284 | 7137 ft | 233 kts | 9° |
| 2026-04-23 20:16 | 53.27952 | -6.81707 | 6875 ft | 221 kts | 25° |
| 2026-04-23 20:16 | 53.29352 | -6.80704 | 6523 ft | 217 kts | 29° |
| 2026-04-23 20:17 | 53.30700 | -6.79664 | 6223 ft | 211 kts | 29° |
| 2026-04-23 20:17 | 53.32029 | -6.78633 | 5833 ft | 210 kts | 29° |
| 2026-04-23 20:17 | 53.33337 | -6.77627 | 5491 ft | 209 kts | 28° |
| 2026-04-23 20:17 | 53.34657 | -6.76620 | 5269 ft | 202 kts | 28° |
| 2026-04-23 20:18 | 53.35939 | -6.75644 | 5141 ft | 203 kts | 28° |
| 2026-04-23 20:18 | 53.37221 | -6.74672 | 5049 ft | 207 kts | 28° |
| 2026-04-23 20:18 | 53.38546 | -6.73672 | 4937 ft | 209 kts | 28° |
| 2026-04-23 20:18 | 53.39891 | -6.72657 | 4587 ft | 216 kts | 28° |
| 2026-04-23 20:19 | 53.41238 | -6.71644 | 4360 ft | 206 kts | 28° |
| 2026-04-23 20:19 | 53.42506 | -6.70694 | 4200 ft | 193 kts | 29° |
| 2026-04-23 20:19 | 53.43711 | -6.69789 | 4116 ft | 188 kts | 29° |
| 2026-04-23 20:19 | 53.44802 | -6.68678 | 3993 ft | 179 kts | 55° |
| 2026-04-23 20:20 | 53.45420 | -6.66946 | 3920 ft | 171 kts | 73° |
| 2026-04-23 20:20 | 53.45579 | -6.65014 | 3814 ft | 167 kts | 94° |
| 2026-04-23 20:20 | 53.45598 | -6.63045 | 3692 ft | 170 kts | 94° |
| 2026-04-23 20:20 | 53.45564 | -6.61073 | 3590 ft | 167 kts | 97° |
| 2026-04-23 20:21 | 53.45483 | -6.59166 | 3453 ft | 159 kts | 99° |
| 2026-04-23 20:21 | 53.45390 | -6.57404 | 3331 ft | 146 kts | 99° |
| 2026-04-23 20:21 | 53.45295 | -6.55727 | 3224 ft | 144 kts | 99° |
| 2026-04-23 20:21 | 53.45200 | -6.54086 | 3115 ft | 143 kts | 99° |
| 2026-04-23 20:22 | 53.45106 | -6.52458 | 3087 ft | 138 kts | 100° |
| 2026-04-23 20:22 | 53.45013 | -6.50858 | 2917 ft | 137 kts | 100° |
| 2026-04-23 20:22 | 53.44923 | -6.49288 | 2739 ft | 133 kts | 100° |
| 2026-04-23 20:22 | 53.44835 | -6.47767 | 2557 ft | 129 kts | 99° |
| 2026-04-23 20:23 | 53.44748 | -6.46255 | 2399 ft | 132 kts | 99° |
| 2026-04-23 20:23 | 53.44659 | -6.44717 | 2214 ft | 132 kts | 99° |
| 2026-04-23 20:23 | 53.44572 | -6.43197 | 2039 ft | 130 kts | 99° |
| 2026-04-23 20:23 | 53.44486 | -6.41680 | 1856 ft | 130 kts | 99° |
| 2026-04-23 20:24 | 53.44399 | -6.40158 | 1685 ft | 133 kts | 98° |
| 2026-04-23 20:24 | 53.44311 | -6.38608 | 1503 ft | 134 kts | 97° |
| 2026-04-23 20:24 | 53.44216 | -6.37050 | 1272 ft | 135 kts | 97° |
| 2026-04-23 20:24 | 53.44135 | -6.35480 | 1051 ft | 134 kts | 96° |
| 2026-04-23 20:25 | 53.44042 | -6.33950 | 889 ft | 130 kts | 96° |
| 2026-04-23 20:25 | 53.43961 | -6.32441 | 744 ft | 131 kts | 95° |
| 2026-04-23 20:25 | 53.43869 | -6.30939 | 596 ft | 133 kts | 96° |
| 2026-04-23 20:25 | 53.43791 | -6.29373 | 403 ft | 133 kts | 93° |
| 2026-04-23 20:26 | 53.43709 | -6.27865 | 242 ft | 130 kts | 95° |
| 2026-04-23 20:26 | 53.43627 | -6.26470 | 215 ft | 103 kts | 95° |
| 2026-04-23 20:26 | 53.43576 | -6.25530 | 216 ft | 53 kts | 95° |
| 2026-04-23 20:26 | 53.43503 | -6.25153 | 215 ft | 32 kts | 122° |
| 2026-04-23 20:27 | 53.43402 | -6.24865 | 212 ft | 19 kts | 118° |
| 2026-04-23 20:27 | 53.43362 | -6.24665 | 217 ft | 18 kts | 97° |
| 2026-04-23 20:27 | 53.43346 | -6.24459 | 210 ft | 17 kts | 102° |
| 2026-04-23 20:27 | 53.43244 | -6.24410 | 211 ft | 17 kts | 188° |
| 2026-04-23 20:28 | 53.43192 | -6.24552 | 210 ft | 16 kts | 275° |
| 2026-04-23 20:28 | 53.43202 | -6.24739 | 218 ft | 16 kts | 275° |
| 2026-04-23 20:28 | 53.43214 | -6.24955 | 214 ft | 21 kts | 275° |
| 2026-04-23 20:28 | 53.43227 | -6.25194 | 210 ft | 20 kts | 275° |
| 2026-04-23 20:29 | 53.43202 | -6.25417 | 216 ft | 17 kts | 247° |
| 2026-04-23 20:29 | 53.43157 | -6.25493 | 216 ft | 9 kts | 187° |
| 2026-04-23 20:29 | 53.43095 | -6.25461 | 213 ft | 10 kts | 158° |
| 2026-04-23 20:29 | 53.43007 | -6.25395 | 219 ft | 20 kts | 155° |
| 2026-04-23 20:30 | 53.42955 | -6.25259 | 214 ft | 13 kts | 71° |
| 2026-04-23 20:30 | 53.42963 | -6.25096 | 210 ft | 3 kts | 60° |
| 2026-04-23 20:30 | 53.42994 | -6.25077 | 210 ft | 7 kts | 6° |
| 2026-04-23 20:31 | 53.43014 | -6.25074 | 210 ft | 0 kts | 5° |
| 2026-04-23 20:31 | 53.43015 | -6.25074 | 210 ft | 0 kts | 6° |